Time;durP1;ratioP1;P1;durP2;ratioP2;P2;SDS_P1;SDS_P2;PMS_P1;PMS_P2;Temp;Humidity;BMP_temperature;BMP_pressure;BME280_temperature;BME280_humidity;BME280_pressure;Samples;Min_cycle;Max_cycle;Signal;HPM_P1;HPM_P2
2021/09/16 00:00:14;;;;;;;8.30;3.90;;;17.10;75.00;;;;;;4961547;28;20415;-86
2021/09/16 00:02:41;;;;;;;6.35;3.80;;;17.10;75.00;;;;;;4978543;28;20199;-86
2021/09/16 00:05:08;;;;;;;4.35;3.10;;;17.10;74.80;;;;;;4961893;28;20223;-85
2021/09/16 00:07:34;;;;;;;12.60;4.82;;;17.10;74.60;;;;;;4947428;28;20262;-85
2021/09/16 00:09:59;;;;;;;7.23;3.40;;;17.00;74.70;;;;;;4963156;28;20211;-85
2021/09/16 00:12:25;;;;;;;7.80;3.73;;;16.90;75.50;;;;;;4961716;28;20273;-86
2021/09/16 00:14:51;;;;;;;4.10;3.50;;;16.70;76.30;;;;;;4961699;28;20684;-86
2021/09/16 00:17:17;;;;;;;8.80;4.00;;;16.70;76.80;;;;;;4946991;28;20188;-86
2021/09/16 00:19:43;;;;;;;6.80;3.20;;;16.50;77.30;;;;;;4963713;28;20172;-85
2021/09/16 00:22:08;;;;;;;5.82;3.92;;;16.50;77.60;;;;;;4965340;28;20255;-85
2021/09/16 00:24:34;;;;;;;12.43;3.70;;;16.50;78.00;;;;;;4965574;28;20599;-84
2021/09/16 00:27:00;;;;;;;6.65;3.58;;;16.50;78.20;;;;;;4983284;28;20183;-85
2021/09/16 00:29:26;;;;;;;13.17;3.83;;;16.40;78.20;;;;;;4985756;28;20179;-85
2021/09/16 00:31:51;;;;;;;17.63;4.47;;;16.40;78.30;;;;;;4967767;28;20247;-84
2021/09/16 00:34:17;;;;;;;5.10;3.83;;;16.40;78.40;;;;;;4966421;28;20215;-84
2021/09/16 00:36:43;;;;;;;7.03;3.60;;;16.40;78.50;;;;;;4952684;28;20275;-84
2021/09/16 00:39:08;;;;;;;6.90;3.47;;;16.30;78.50;;;;;;4946200;29;20176;-84
2021/09/16 00:41:34;;;;;;;11.67;3.67;;;16.40;78.50;;;;;;4952843;28;20615;-85
2021/09/16 00:44:00;;;;;;;7.90;3.87;;;16.40;78.50;;;;;;4974731;28;20215;-83
2021/09/16 00:46:26;;;;;;;6.30;4.00;;;16.30;78.50;;;;;;4969715;28;20184;-84
2021/09/16 00:48:52;;;;;;;6.23;4.63;;;16.30;78.70;;;;;;4985881;28;20176;-84
2021/09/16 00:51:18;;;;;;;5.60;3.20;;;16.40;78.80;;;;;;4983496;28;20423;-85
2021/09/16 00:53:44;;;;;;;9.73;4.07;;;16.40;78.70;;;;;;4981749;28;20471;-85
2021/09/16 00:56:12;;;;;;;6.97;4.07;;;16.40;78.70;;;;;;4980815;28;20463;-85
2021/09/16 00:58:40;;;;;;;4.60;3.25;;;16.40;78.70;;;;;;4946629;28;20219;-85
2021/09/16 01:01:06;;;;;;;3.50;3.20;;;16.30;78.70;;;;;;4980896;28;20632;-85
2021/09/16 01:03:33;;;;;;;6.18;3.58;;;16.30;78.80;;;;;;4961549;28;20223;-85
2021/09/16 01:06:01;;;;;;;6.22;3.65;;;16.40;78.70;;;;;;4963332;28;20196;-84
2021/09/16 01:08:27;;;;;;;6.22;3.90;;;16.40;78.80;;;;;;4985636;28;20206;-84
2021/09/16 01:10:52;;;;;;;4.40;3.00;;;16.30;78.70;;;;;;4999261;28;20632;-85
2021/09/16 01:13:18;;;;;;;2.93;2.60;;;16.40;78.50;;;;;;4980857;28;20210;-85
2021/09/16 01:15:45;;;;;;;5.83;3.53;;;16.40;78.50;;;;;;4980136;28;20199;-86
2021/09/16 01:18:12;;;;;;;7.80;3.35;;;16.30;78.50;;;;;;4979955;28;20925;-85
2021/09/16 01:20:38;;;;;;;9.02;3.67;;;16.40;78.50;;;;;;4984872;28;20179;-84
2021/09/16 01:23:04;;;;;;;8.82;5.55;;;16.40;78.20;;;;;;4983653;28;20290;-85
2021/09/16 01:25:31;;;;;;;12.23;3.63;;;16.40;78.50;;;;;;4985324;28;20219;-85
2021/09/16 01:27:59;;;;;;;4.95;3.30;;;16.50;78.10;;;;;;4986746;28;20663;-84
2021/09/16 01:30:25;;;;;;;8.15;3.85;;;16.60;77.40;;;;;;4986588;28;20187;-84
2021/09/16 01:32:52;;;;;;;6.05;3.35;;;16.50;77.10;;;;;;5002295;28;20218;-83
2021/09/16 01:35:18;;;;;;;5.82;4.15;;;16.50;77.30;;;;;;4981717;28;20211;-85
2021/09/16 01:37:44;;;;;;;12.65;6.15;;;16.40;77.60;;;;;;4977555;28;20179;-85
2021/09/16 01:40:11;;;;;;;8.93;6.28;;;16.30;78.00;;;;;;4978116;28;20188;-85
2021/09/16 01:42:45;;;;;;;9.45;7.05;;;16.30;78.10;;;;;;4945715;28;20207;-87
2021/09/16 01:45:19;;;;;;;10.70;6.72;;;16.40;78.10;;;;;;4960666;28;20179;-87
2021/09/16 01:47:46;;;;;;;13.10;6.68;;;16.30;77.80;;;;;;4967890;28;20193;-84
2021/09/16 01:50:14;;;;;;;12.57;6.13;;;16.20;78.10;;;;;;4974469;28;20183;-85
2021/09/16 01:52:40;;;;;;;12.13;5.10;;;16.20;78.30;;;;;;4969791;28;20294;-85
2021/09/16 01:55:07;;;;;;;7.35;5.75;;;16.20;78.50;;;;;;4965733;28;20702;-84
2021/09/16 01:57:33;;;;;;;12.88;5.38;;;16.20;78.60;;;;;;4965756;28;20210;-84
2021/09/16 01:59:59;;;;;;;5.72;4.50;;;16.30;78.50;;;;;;4983903;28;20176;-84
2021/09/16 02:02:25;;;;;;;6.18;4.95;;;16.30;78.50;;;;;;4966207;28;20536;-84
2021/09/16 02:04:51;;;;;;;7.18;5.05;;;16.30;78.40;;;;;;4964593;28;20188;-84
2021/09/16 02:07:17;;;;;;;10.17;5.10;;;16.30;78.50;;;;;;4976296;28;20242;-85
2021/09/16 02:09:43;;;;;;;10.10;5.87;;;16.30;78.50;;;;;;4984250;28;20489;-84
2021/09/16 02:12:09;;;;;;;7.33;5.40;;;16.30;78.40;;;;;;4984160;28;20182;-85
2021/09/16 02:14:35;;;;;;;8.40;5.00;;;16.50;78.30;;;;;;5002838;28;20422;-84
2021/09/16 02:17:01;;;;;;;10.27;5.90;;;16.60;78.00;;;;;;4984289;28;20246;-84
2021/09/16 02:19:28;;;;;;;16.83;5.87;;;16.70;77.90;;;;;;5003853;28;20438;-85
2021/09/16 02:21:54;;;;;;;15.35;7.20;;;16.70;77.70;;;;;;4992422;28;20818;-84
2021/09/16 02:24:20;;;;;;;15.27;6.10;;;16.70;77.70;;;;;;4992918;28;20226;-84
2021/09/16 02:26:46;;;;;;;16.73;7.30;;;16.70;77.60;;;;;;4990840;28;20418;-84
2021/09/16 02:29:11;;;;;;;17.93;8.40;;;16.90;77.30;;;;;;4982719;28;20665;-84
2021/09/16 02:31:37;;;;;;;10.97;6.33;;;16.90;76.90;;;;;;5000040;28;20415;-85
2021/09/16 02:34:03;;;;;;;10.60;6.37;;;16.80;76.80;;;;;;5000165;28;20383;-85
2021/09/16 02:36:29;;;;;;;14.07;6.10;;;16.80;76.90;;;;;;4982081;28;20670;-84
2021/09/16 02:38:54;;;;;;;17.70;8.10;;;16.70;76.90;;;;;;4982967;28;20171;-84
2021/09/16 02:41:21;;;;;;;14.03;6.20;;;16.90;76.80;;;;;;4975536;28;20267;-84
2021/09/16 02:43:47;;;;;;;11.45;7.07;;;17.00;76.40;;;;;;4962210;28;20258;-85
2021/09/16 02:46:13;;;;;;;13.18;5.97;;;16.80;76.50;;;;;;4962738;28;20245;-84
2021/09/16 02:48:39;;;;;;;13.65;5.38;;;16.80;76.60;;;;;;4962965;28;20233;-85
2021/09/16 02:51:06;;;;;;;10.60;7.10;;;16.90;76.70;;;;;;4962338;28;20241;-85
2021/09/16 02:53:31;;;;;;;16.35;7.18;;;16.90;76.50;;;;;;4978431;28;20675;-85
2021/09/16 02:55:58;;;;;;;14.33;6.23;;;16.90;76.60;;;;;;4962633;28;20239;-85
2021/09/16 02:58:24;;;;;;;12.38;6.28;;;16.80;76.60;;;;;;4963190;28;20435;-85
2021/09/16 03:00:50;;;;;;;11.03;7.50;;;16.80;76.80;;;;;;4981466;28;20187;-85
2021/09/16 03:03:15;;;;;;;14.53;6.43;;;16.80;76.80;;;;;;4980203;28;20202;-85
2021/09/16 03:05:41;;;;;;;18.00;6.90;;;16.80;76.90;;;;;;4962594;28;20191;-83
2021/09/16 03:08:07;;;;;;;10.33;6.57;;;16.80;77.10;;;;;;4962919;28;20226;-85
2021/09/16 03:10:33;;;;;;;12.43;6.83;;;16.90;76.80;;;;;;4963978;28;20430;-84
2021/09/16 03:12:59;;;;;;;10.37;6.43;;;16.80;76.80;;;;;;4963172;28;20200;-85
2021/09/16 03:15:25;;;;;;;11.00;7.17;;;16.70;76.90;;;;;;4974796;28;20199;-85
2021/09/16 03:17:50;;;;;;;15.90;7.37;;;16.70;77.00;;;;;;4982705;28;20176;-84
2021/09/16 03:20:16;;;;;;;19.53;7.80;;;16.70;77.10;;;;;;4992386;28;20429;-84
2021/09/16 03:22:42;;;;;;;14.17;8.33;;;16.80;77.00;;;;;;5014950;28;20198;-84
2021/09/16 03:25:09;;;;;;;13.63;8.20;;;16.80;77.00;;;;;;4998757;28;20404;-84
2021/09/16 03:27:35;;;;;;;14.75;8.52;;;16.70;77.10;;;;;;5011925;28;20243;-84
2021/09/16 03:30:01;;;;;;;9.02;7.75;;;16.70;77.30;;;;;;4980755;28;20188;-85
2021/09/16 03:32:27;;;;;;;16.70;9.20;;;16.60;77.20;;;;;;4979372;28;20219;-84
2021/09/16 03:34:53;;;;;;;12.80;7.97;;;16.50;77.30;;;;;;4981801;28;20191;-85
2021/09/16 03:37:18;;;;;;;15.60;8.70;;;16.60;77.30;;;;;;4980261;28;20662;-84
2021/09/16 03:39:44;;;;;;;11.83;8.23;;;16.70;77.00;;;;;;4979448;28;20183;-84
2021/09/16 03:42:10;;;;;;;20.10;9.63;;;16.70;77.00;;;;;;4979004;28;20191;-84
2021/09/16 03:44:36;;;;;;;16.33;8.90;;;16.50;77.00;;;;;;4960338;28;20180;-85
2021/09/16 03:47:04;;;;;;;17.67;8.35;;;16.50;77.30;;;;;;4965506;28;20172;-84
2021/09/16 03:49:30;;;;;;;17.55;9.38;;;16.40;77.40;;;;;;4950033;28;20215;-84
2021/09/16 03:51:56;;;;;;;14.63;7.80;;;16.50;77.50;;;;;;4963913;28;20206;-85
2021/09/16 03:54:22;;;;;;;10.30;7.90;;;16.50;77.50;;;;;;4957723;28;20445;-86
2021/09/16 03:56:47;;;;;;;11.50;7.50;;;16.60;77.40;;;;;;4974830;28;20204;-87
2021/09/16 03:59:13;;;;;;;22.80;7.67;;;16.60;77.30;;;;;;4959626;28;20422;-87
2021/09/16 04:01:38;;;;;;;9.70;7.87;;;16.70;77.40;;;;;;4960312;28;20497;-87
2021/09/16 04:04:05;;;;;;;14.10;8.27;;;16.70;77.10;;;;;;4960736;28;20223;-87
2021/09/16 04:06:31;;;;;;;10.13;7.13;;;16.80;77.00;;;;;;4960292;28;20176;-87
2021/09/16 04:08:56;;;;;;;12.20;6.20;;;16.70;76.80;;;;;;4960539;28;20190;-85
2021/09/16 04:11:22;;;;;;;13.00;7.80;;;16.70;76.90;;;;;;4960809;28;20597;-85
2021/09/16 04:13:48;;;;;;;13.20;7.57;;;16.70;76.80;;;;;;4977881;28;20203;-85
2021/09/16 04:16:13;;;;;;;12.67;7.70;;;16.80;76.70;;;;;;4978019;28;20202;-85
2021/09/16 04:18:39;;;;;;;11.73;7.33;;;16.90;76.60;;;;;;4979869;28;20643;-85
2021/09/16 04:21:05;;;;;;;11.93;7.47;;;16.80;76.60;;;;;;4980087;28;20183;-85
2021/09/16 04:23:30;;;;;;;13.53;6.90;;;16.80;76.60;;;;;;4998129;28;20199;-85
2021/09/16 04:25:56;;;;;;;19.40;6.33;;;16.80;76.60;;;;;;4984215;28;20179;-83
2021/09/16 04:28:22;;;;;;;8.97;6.50;;;16.80;76.60;;;;;;4988858;28;20330;-82
2021/09/16 04:30:47;;;;;;;12.97;7.30;;;16.80;76.70;;;;;;5015206;28;20187;-82
2021/09/16 04:33:13;;;;;;;12.70;6.90;;;16.80;76.70;;;;;;5007117;28;20238;-83
2021/09/16 04:35:39;;;;;;;11.70;7.07;;;16.80;76.80;;;;;;5012330;28;20214;-83
2021/09/16 04:38:05;;;;;;;12.60;8.00;;;16.80;77.00;;;;;;4998992;28;20192;-83
2021/09/16 04:40:30;;;;;;;15.40;8.17;;;16.80;77.10;;;;;;4998849;28;20231;-83
2021/09/16 04:42:56;;;;;;;11.23;6.93;;;16.80;77.30;;;;;;4982987;28;20188;-82
2021/09/16 04:45:22;;;;;;;16.60;7.23;;;16.80;77.50;;;;;;4999595;28;20160;-84
2021/09/16 04:47:47;;;;;;;14.33;8.73;;;16.80;77.60;;;;;;4999362;28;20198;-83
2021/09/16 04:50:13;;;;;;;14.20;8.47;;;16.80;77.70;;;;;;4977577;28;20186;-84
2021/09/16 04:52:39;;;;;;;15.55;8.88;;;17.00;77.80;;;;;;4967260;28;20298;-84
2021/09/16 04:55:07;;;;;;;15.32;8.50;;;16.80;77.50;;;;;;4964583;28;20241;-83
2021/09/16 04:57:33;;;;;;;11.93;7.70;;;16.90;77.50;;;;;;4965077;28;20265;-83
2021/09/16 04:59:58;;;;;;;9.67;6.67;;;16.90;77.60;;;;;;4966096;28;20184;-84
2021/09/16 05:02:24;;;;;;;14.30;8.93;;;16.90;77.70;;;;;;4965865;28;20432;-82
2021/09/16 05:04:50;;;;;;;16.33;9.77;;;16.90;77.70;;;;;;4981989;28;20168;-81
2021/09/16 05:07:15;;;;;;;18.20;10.83;;;16.80;77.60;;;;;;4949514;28;20183;-83
2021/09/16 05:09:41;;;;;;;12.40;9.30;;;16.90;77.70;;;;;;4982091;28;20172;-83
2021/09/16 05:12:07;;;;;;;15.60;8.47;;;16.80;77.60;;;;;;4965105;28;20234;-82
2021/09/16 05:14:32;;;;;;;15.40;10.33;;;16.80;77.70;;;;;;4965467;28;20179;-82
2021/09/16 05:16:58;;;;;;;12.03;8.33;;;16.90;77.80;;;;;;4965269;28;20870;-83
2021/09/16 05:19:24;;;;;;;13.90;8.10;;;16.90;77.90;;;;;;4964652;28;20623;-82
2021/09/16 05:21:50;;;;;;;13.47;8.67;;;16.90;77.70;;;;;;4965024;28;20179;-83
2021/09/16 05:24:18;;;;;;;17.53;9.37;;;16.90;77.70;;;;;;4966099;28;20298;-83
2021/09/16 05:26:45;;;;;;;14.38;8.27;;;17.00;77.60;;;;;;4983206;28;20412;-82
2021/09/16 05:29:12;;;;;;;13.25;9.02;;;16.90;77.60;;;;;;4965552;28;20186;-83
2021/09/16 05:31:38;;;;;;;21.20;9.35;;;16.90;77.70;;;;;;4965369;28;20176;-83
2021/09/16 05:34:03;;;;;;;20.60;10.50;;;17.00;77.70;;;;;;4965636;28;20222;-82
2021/09/16 05:36:29;;;;;;;19.20;9.70;;;17.00;77.70;;;;;;4983508;28;20455;-84
2021/09/16 05:38:55;;;;;;;17.63;11.17;;;17.00;77.70;;;;;;4982852;28;20423;-83
2021/09/16 05:41:21;;;;;;;22.30;9.70;;;17.00;77.80;;;;;;4966687;28;20176;-83
2021/09/16 05:43:47;;;;;;;24.48;11.75;;;17.00;77.70;;;;;;4965754;28;20210;-84
2021/09/16 05:46:13;;;;;;;15.37;11.07;;;17.00;77.70;;;;;;4967324;28;20184;-83
2021/09/16 05:48:39;;;;;;;15.77;9.75;;;17.00;77.60;;;;;;4987307;28;20227;-84
2021/09/16 05:51:04;;;;;;;17.40;9.93;;;17.00;77.70;;;;;;4968083;28;20210;-83
2021/09/16 05:53:30;;;;;;;18.33;9.20;;;17.00;77.80;;;;;;4968013;28;20215;-82
2021/09/16 05:55:57;;;;;;;15.37;9.73;;;17.20;77.80;;;;;;4993718;28;20227;-83
2021/09/16 05:58:22;;;;;;;28.58;10.57;;;17.40;77.30;;;;;;4994209;28;20187;-84
2021/09/16 06:00:48;;;;;;;22.57;11.40;;;17.30;77.00;;;;;;4978509;28;20211;-84
2021/09/16 06:03:14;;;;;;;20.63;11.33;;;17.40;76.90;;;;;;4994699;28;20451;-83
2021/09/16 06:05:39;;;;;;;16.80;10.87;;;17.60;76.20;;;;;;4978396;28;20235;-82
2021/09/16 06:08:05;;;;;;;17.00;10.30;;;17.50;76.20;;;;;;4999297;28;20176;-83
2021/09/16 06:10:31;;;;;;;31.97;12.20;;;17.50;76.00;;;;;;4978006;28;20423;-83
2021/09/16 06:12:57;;;;;;;16.17;10.67;;;17.50;76.10;;;;;;4995375;28;20192;-84
2021/09/16 06:15:24;;;;;;;16.90;11.17;;;17.40;76.00;;;;;;4988176;28;20199;-83
2021/09/16 06:17:50;;;;;;;20.38;11.20;;;17.20;76.20;;;;;;4997043;28;20178;-83
2021/09/16 06:20:16;;;;;;;26.60;13.30;;;17.10;77.00;;;;;;4996181;28;20192;-84
2021/09/16 06:22:46;;;;;;;14.65;10.75;;;17.10;77.70;;;;;;4989906;28;20282;-84
2021/09/16 06:25:13;;;;;;;20.60;12.27;;;17.10;78.50;;;;;;4988742;28;20187;-83
2021/09/16 06:27:39;;;;;;;27.63;13.27;;;17.10;78.80;;;;;;4967900;28;20689;-86
2021/09/16 06:30:05;;;;;;;26.67;16.43;;;17.10;81.30;;;;;;4983470;28;20187;-85
2021/09/16 06:32:33;;;;;;;23.00;15.03;;;17.20;83.70;;;;;;5004257;28;20222;-85
2021/09/16 06:34:59;;;;;;;31.05;17.52;;;17.20;84.50;;;;;;4994129;28;20426;-85
2021/09/16 06:37:25;;;;;;;31.20;18.40;;;17.30;85.00;;;;;;4989727;28;20184;-85
2021/09/16 06:39:51;;;;;;;45.43;16.83;;;17.30;85.10;;;;;;4979341;28;20182;-86
2021/09/16 06:42:16;;;;;;;76.50;22.80;;;17.40;85.00;;;;;;4967731;28;20427;-85
2021/09/16 06:44:44;;;;;;;29.30;14.77;;;17.40;84.50;;;;;;4962319;28;20199;-86
2021/09/16 06:47:10;;;;;;;28.08;14.70;;;17.40;84.50;;;;;;4961149;28;20179;-86
2021/09/16 06:49:45;;;;;;;25.60;14.73;;;17.40;84.30;;;;;;4960997;28;20211;-86
2021/09/16 06:52:11;;;;;;;28.77;17.48;;;17.40;84.00;;;;;;4976580;28;20191;-85
2021/09/16 06:54:37;;;;;;;25.65;15.30;;;17.50;84.00;;;;;;4960489;28;20270;-86
2021/09/16 06:57:03;;;;;;;26.93;14.93;;;17.50;83.90;;;;;;4960858;28;20229;-86
2021/09/16 06:59:28;;;;;;;31.27;15.83;;;17.50;83.90;;;;;;4961136;28;20667;-86
2021/09/16 07:01:54;;;;;;;26.60;15.93;;;17.50;83.90;;;;;;4959890;28;20503;-86
2021/09/16 07:04:20;;;;;;;31.00;17.13;;;17.60;83.70;;;;;;4962861;28;20263;-85
2021/09/16 07:06:45;;;;;;;28.40;16.03;;;17.60;83.30;;;;;;4980703;28;20184;-85
2021/09/16 07:09:11;;;;;;;27.63;15.60;;;17.60;83.20;;;;;;4964099;28;20191;-85
2021/09/16 07:11:37;;;;;;;28.47;14.93;;;17.70;82.70;;;;;;4965717;28;20187;-85
2021/09/16 07:14:04;;;;;;;25.20;15.07;;;17.70;82.50;;;;;;4981548;28;20254;-85
2021/09/16 07:16:30;;;;;;;25.67;15.32;;;17.80;82.40;;;;;;4944150;29;20208;-85
2021/09/16 07:18:56;;;;;;;32.73;16.70;;;17.70;82.30;;;;;;4944601;29;20187;-85
2021/09/16 07:21:21;;;;;;;31.53;16.00;;;17.80;82.10;;;;;;4944745;29;20181;-84
2021/09/16 07:23:47;;;;;;;27.93;15.80;;;17.80;81.80;;;;;;4945074;29;20228;-86
2021/09/16 07:26:14;;;;;;;77.93;24.20;;;17.80;81.90;;;;;;4944453;29;20203;-85
2021/09/16 07:28:39;;;;;;;61.70;20.17;;;17.80;82.20;;;;;;4945073;29;20267;-85
2021/09/16 07:31:05;;;;;;;38.60;20.70;;;17.80;82.10;;;;;;4961842;29;20204;-85
2021/09/16 07:33:32;;;;;;;32.37;16.40;;;17.90;82.10;;;;;;4945668;29;20212;-86
2021/09/16 07:35:58;;;;;;;302.67;52.75;;;17.90;81.90;;;;;;4970921;28;20203;-85
2021/09/16 07:38:25;;;;;;;27.30;16.48;;;17.90;82.00;;;;;;4983537;28;20180;-85
2021/09/16 07:40:51;;;;;;;28.17;18.25;;;17.90;82.30;;;;;;4982367;28;20192;-86
2021/09/16 07:43:16;;;;;;;36.10;16.57;;;17.90;82.00;;;;;;4965853;28;20207;-86
2021/09/16 07:45:42;;;;;;;28.53;16.00;;;17.80;81.70;;;;;;4966165;28;20470;-85
2021/09/16 07:48:08;;;;;;;27.97;15.80;;;17.90;81.80;;;;;;4966221;28;20211;-86
2021/09/16 07:50:33;;;;;;;23.63;16.23;;;18.00;81.60;;;;;;4966364;28;20180;-86
2021/09/16 07:52:59;;;;;;;28.77;16.00;;;18.20;81.50;;;;;;4966885;28;20204;-86
2021/09/16 07:55:25;;;;;;;28.50;17.57;;;18.20;81.00;;;;;;4968194;28;20204;-85
2021/09/16 07:57:51;;;;;;;25.58;14.82;;;18.00;81.00;;;;;;4968034;28;20165;-85
2021/09/16 08:00:17;;;;;;;25.63;15.43;;;18.00;80.90;;;;;;4969206;28;20247;-86
2021/09/16 08:02:48;;;;;;;29.30;15.17;;;18.10;81.00;;;;;;4969692;28;21021;-85
2021/09/16 08:05:15;;;;;;;26.67;15.90;;;18.00;81.00;;;;;;4968445;28;20219;-85
2021/09/16 08:07:41;;;;;;;24.05;16.08;;;17.90;81.10;;;;;;4986987;28;20532;-85
2021/09/16 08:10:08;;;;;;;21.15;14.60;;;18.00;80.80;;;;;;4977857;28;20176;-84
2021/09/16 08:12:34;;;;;;;27.08;14.40;;;18.00;80.60;;;;;;4983007;28;20569;-86
2021/09/16 08:15:00;;;;;;;24.77;16.60;;;18.00;80.60;;;;;;4962780;28;20176;-86
2021/09/16 08:17:26;;;;;;;31.20;15.70;;;18.20;80.20;;;;;;4962919;28;20172;-86
2021/09/16 08:19:52;;;;;;;28.63;15.20;;;18.30;80.10;;;;;;4962216;28;20186;-85
2021/09/16 08:22:17;;;;;;;21.83;14.80;;;18.20;79.80;;;;;;4961993;28;20255;-86
2021/09/16 08:24:43;;;;;;;31.33;15.57;;;18.20;79.70;;;;;;4980195;28;20179;-86
2021/09/16 08:27:09;;;;;;;24.47;14.93;;;18.10;79.80;;;;;;4962697;28;20192;-86
2021/09/16 08:29:35;;;;;;;21.80;12.37;;;18.20;79.70;;;;;;4962924;28;20430;-86
2021/09/16 08:32:01;;;;;;;18.58;10.65;;;18.40;78.50;;;;;;4962440;28;20430;-85
2021/09/16 08:34:28;;;;;;;16.15;9.27;;;18.30;77.60;;;;;;4963606;28;20683;-86
2021/09/16 08:36:55;;;;;;;21.58;10.93;;;18.20;77.60;;;;;;4934886;29;20204;-86
2021/09/16 08:39:22;;;;;;;17.00;9.63;;;18.30;77.90;;;;;;4944958;29;20183;-86
2021/09/16 08:41:48;;;;;;;19.95;9.77;;;18.30;77.50;;;;;;4953177;28;20183;-86
2021/09/16 08:44:16;;;;;;;21.87;9.17;;;18.50;76.80;;;;;;4963153;28;20546;-86
2021/09/16 08:46:42;;;;;;;9.57;6.30;;;18.70;76.30;;;;;;4964083;28;20416;-85
2021/09/16 08:49:08;;;;;;;10.25;5.40;;;18.80;75.50;;;;;;4964850;28;20187;-85
2021/09/16 08:51:35;;;;;;;7.13;4.75;;;18.70;73.30;;;;;;4964945;28;20184;-85
2021/09/16 08:54:07;;;;;;;6.68;4.95;;;18.80;71.70;;;;;;4965171;28;20214;-86
2021/09/16 08:56:33;;;;;;;10.95;6.07;;;18.80;71.90;;;;;;4965758;28;20199;-85
2021/09/16 08:59:03;;;;;;;16.88;7.93;;;18.70;71.90;;;;;;4962719;28;20226;-86
2021/09/16 09:01:29;;;;;;;11.15;5.45;;;18.90;72.50;;;;;;4980807;28;20175;-86
2021/09/16 09:03:55;;;;;;;5.83;4.43;;;18.80;71.90;;;;;;4965856;28;20636;-86
2021/09/16 09:06:38;;;;;;;21.10;5.90;;;19.00;72.20;;;;;;4966750;28;20651;-85
2021/09/16 09:09:19;;;;;;;43.78;11.60;;;19.10;71.50;;;;;;4983610;28;20175;-86
2021/09/16 09:12:11;;;;;;;10.75;6.28;;;19.30;71.30;;;;;;4983832;28;20173;-85
2021/09/16 09:14:43;;;;;;;9.30;5.88;;;19.20;70.10;;;;;;4982887;28;20226;-86
2021/09/16 09:17:27;;;;;;;6.93;5.35;;;19.20;70.00;;;;;;5001263;28;20298;-86
2021/09/16 09:19:55;;;;;;;20.23;6.65;;;19.10;69.60;;;;;;4983562;28;20206;-86
2021/09/16 09:22:47;;;;;;;9.25;5.35;;;19.10;69.30;;;;;;4982114;28;20206;-86
2021/09/16 09:25:14;;;;;;;6.47;4.45;;;19.10;69.70;;;;;;4978382;28;20236;-86
2021/09/16 09:27:51;;;;;;;8.25;4.78;;;19.20;68.60;;;;;;4982063;28;20183;-86
2021/09/16 09:30:20;;;;;;;79.07;13.52;;;19.40;67.00;;;;;;4982136;28;20167;-85
2021/09/16 09:32:57;;;;;;;9.43;5.53;;;19.50;68.10;;;;;;4981799;28;20225;-85
2021/09/16 09:35:38;;;;;;;6.53;4.72;;;19.70;66.50;;;;;;4998794;28;20190;-85
2021/09/16 09:38:16;;;;;;;9.68;4.90;;;19.80;66.20;;;;;;4980735;28;20215;-85
2021/09/16 09:40:44;;;;;;;5.25;3.72;;;19.70;65.90;;;;;;4978594;28;20187;-85
2021/09/16 09:43:45;;;;;;;7.32;3.17;;;19.80;66.10;;;;;;4961610;28;20572;-86
2021/09/16 09:46:16;;;;;;;6.55;3.67;;;19.80;65.50;;;;;;4958315;28;20605;-85
2021/09/16 09:49:04;;;;;;;7.70;3.92;;;20.00;64.00;;;;;;4958102;28;20188;-85
2021/09/16 09:51:37;;;;;;;9.15;3.53;;;20.10;65.50;;;;;;4960497;28;20183;-85
2021/09/16 09:54:28;;;;;;;19.13;5.07;;;20.10;63.00;;;;;;4961927;28;20208;-86
2021/09/16 09:57:04;;;;;;;3.80;3.22;;;20.10;61.50;;;;;;4979615;28;20195;-86
2021/09/16 09:59:59;;;;;;;3.10;2.50;;;20.10;62.30;;;;;;4960930;28;20172;-86
2021/09/16 10:02:27;;;;;;;2.67;2.40;;;20.00;62.00;;;;;;4960952;28;20214;-85
2021/09/16 10:04:54;;;;;;;3.28;2.78;;;20.10;62.50;;;;;;4963409;28;20180;-85
2021/09/16 10:07:31;;;;;;;2.67;2.30;;;20.30;61.70;;;;;;4981591;28;20662;-85
2021/09/16 10:09:59;;;;;;;2.92;2.60;;;20.10;61.70;;;;;;4964395;28;20179;-86
2021/09/16 10:12:26;;;;;;;2.85;2.60;;;20.20;60.90;;;;;;4964000;28;20207;-85
2021/09/16 10:14:52;;;;;;;2.45;2.25;;;20.20;61.20;;;;;;4964960;28;20673;-85
2021/09/16 10:17:18;;;;;;;2.35;2.15;;;20.10;61.30;;;;;;4966274;28;20180;-86
2021/09/16 10:19:44;;;;;;;2.60;2.40;;;20.10;61.50;;;;;;4966672;28;20187;-86
2021/09/16 10:22:14;;;;;;;8.85;2.80;;;20.00;62.00;;;;;;4966622;28;20428;-86
2021/09/16 10:24:40;;;;;;;3.60;3.25;;;20.00;61.60;;;;;;4983507;28;20176;-86
2021/09/16 10:27:39;;;;;;;3.67;2.75;;;19.90;62.00;;;;;;4965041;28;20205;-85
2021/09/16 10:30:23;;;;;;;8.98;3.72;;;19.90;62.20;;;;;;4981211;28;20188;-86
2021/09/16 10:33:10;;;;;;;2.78;2.58;;;19.90;62.70;;;;;;4983820;28;20239;-85
2021/09/16 10:35:59;;;;;;;4.97;3.15;;;20.10;61.70;;;;;;4978617;28;20201;-85
2021/09/16 10:38:27;;;;;;;4.00;2.63;;;20.10;61.90;;;;;;4962299;29;20172;-85
2021/09/16 10:41:19;;;;;;;5.40;3.03;;;20.10;61.50;;;;;;4964695;28;20184;-86
2021/09/16 10:44:12;;;;;;;3.60;3.30;;;20.20;61.70;;;;;;4964836;28;20204;-86
2021/09/16 10:46:45;;;;;;;13.52;3.50;;;20.10;62.10;;;;;;4965033;28;20208;-85
2021/09/16 10:49:20;;;;;;;6.43;4.15;;;20.40;60.80;;;;;;4965037;28;20172;-85
2021/09/16 10:51:57;;;;;;;6.22;3.90;;;20.40;61.90;;;;;;4964410;28;20623;-85
2021/09/16 10:54:22;;;;;;;76.60;15.32;;;20.40;61.90;;;;;;4965063;28;20207;-85
2021/09/16 10:57:00;;;;;;;4.80;4.13;;;20.60;62.10;;;;;;4964630;28;20211;-86
2021/09/16 10:59:50;;;;;;;3.45;3.15;;;20.70;62.10;;;;;;4983112;28;20270;-85
2021/09/16 11:02:47;;;;;;;6.07;3.33;;;20.60;61.30;;;;;;4963372;28;20183;-86
2021/09/16 11:05:17;;;;;;;3.63;2.80;;;20.50;60.60;;;;;;4982453;28;20260;-85
2021/09/16 11:07:45;;;;;;;7.03;2.78;;;20.40;59.80;;;;;;4965527;28;20252;-85
2021/09/16 11:10:16;;;;;;;13.82;3.72;;;20.50;61.00;;;;;;4967795;28;20323;-85
2021/09/16 11:12:46;;;;;;;3.97;3.50;;;20.60;61.10;;;;;;4967401;28;20203;-86
2021/09/16 11:15:14;;;;;;;6.70;4.10;;;20.70;61.30;;;;;;4968591;28;20795;-86
2021/09/16 11:17:42;;;;;;;6.78;3.70;;;20.70;61.00;;;;;;4985519;28;20411;-85
2021/09/16 11:20:11;;;;;;;7.30;3.50;;;21.00;61.10;;;;;;4967964;28;20183;-85
2021/09/16 11:22:37;;;;;;;5.13;4.10;;;21.10;60.70;;;;;;4986284;28;20200;-85
2021/09/16 11:25:04;;;;;;;41.67;8.20;;;21.10;59.50;;;;;;4972491;28;20207;-85
2021/09/16 11:27:33;;;;;;;102.30;18.57;;;21.30;60.10;;;;;;4989435;28;20450;-85
2021/09/16 11:30:00;;;;;;;6.80;4.47;;;21.50;59.90;;;;;;4970264;28;20422;-85
2021/09/16 11:32:35;;;;;;;6.33;4.30;;;21.30;59.60;;;;;;4984862;28;20454;-85
2021/09/16 11:35:05;;;;;;;5.33;3.23;;;21.30;59.20;;;;;;4967558;28;20422;-86
2021/09/16 11:37:38;;;;;;;8.03;4.80;;;21.70;59.00;;;;;;4949215;29;20893;-86
2021/09/16 11:40:24;;;;;;;5.47;3.77;;;21.70;58.00;;;;;;4963830;29;20423;-85
2021/09/16 11:43:06;;;;;;;6.43;4.30;;;21.80;57.80;;;;;;4962419;28;20449;-86
2021/09/16 11:45:37;;;;;;;6.83;5.10;;;22.00;57.70;;;;;;4981157;28;20924;-86
2021/09/16 11:48:09;;;;;;;7.40;4.40;;;21.90;56.50;;;;;;4981806;28;20565;-86
2021/09/16 11:50:41;;;;;;;7.47;4.33;;;22.00;57.50;;;;;;4964200;28;20781;-86
2021/09/16 11:53:23;;;;;;;5.80;4.20;;;22.10;57.30;;;;;;4981897;28;20446;-86
2021/09/16 11:56:00;;;;;;;6.87;5.00;;;22.00;57.30;;;;;;4966155;28;20455;-86
2021/09/16 11:58:29;;;;;;;5.10;4.13;;;21.80;57.40;;;;;;4969567;28;20522;-86
2021/09/16 12:01:05;;;;;;;40.67;17.47;;;21.70;56.80;;;;;;4970014;28;20419;-85
2021/09/16 12:03:32;;;;;;;37.43;16.43;;;21.60;57.40;;;;;;4968679;28;20450;-86
2021/09/16 12:06:00;;;;;;;30.07;14.07;;;21.60;58.00;;;;;;4967959;28;20415;-86
2021/09/16 12:08:30;;;;;;;16.40;8.73;;;21.40;58.30;;;;;;4967598;28;20422;-85
2021/09/16 12:11:10;;;;;;;19.17;8.77;;;21.60;58.00;;;;;;4968203;28;20411;-85
2021/09/16 12:13:41;;;;;;;16.33;10.87;;;21.40;58.00;;;;;;4985830;28;20485;-86
2021/09/16 12:16:08;;;;;;;14.47;7.50;;;21.40;58.00;;;;;;4984539;28;20462;-86
2021/09/16 12:18:35;;;;;;;12.93;6.47;;;21.20;58.90;;;;;;5007634;28;20437;-85
2021/09/16 12:21:02;;;;;;;16.80;6.70;;;21.20;59.30;;;;;;4988194;28;20423;-85
2021/09/16 12:23:28;;;;;;;11.53;6.40;;;21.40;59.30;;;;;;4987352;28;20451;-85
2021/09/16 12:25:55;;;;;;;12.43;5.33;;;21.30;59.80;;;;;;4988063;28;20430;-85
2021/09/16 12:28:22;;;;;;;9.07;4.50;;;21.30;59.90;;;;;;4987230;28;20203;-86
2021/09/16 12:30:48;;;;;;;10.67;5.00;;;21.30;59.20;;;;;;4988798;28;20418;-85
2021/09/16 12:33:35;;;;;;;37.77;8.77;;;21.30;59.50;;;;;;4987748;28;20458;-85
2021/09/16 12:36:18;;;;;;;17.00;8.73;;;21.10;58.90;;;;;;4986422;28;20459;-85
2021/09/16 12:38:55;;;;;;;7.30;5.17;;;21.00;59.20;;;;;;4989689;28;20422;-86
2021/09/16 12:41:26;;;;;;;9.73;5.40;;;21.00;59.20;;;;;;4987491;28;20427;-85
2021/09/16 12:44:09;;;;;;;7.77;4.97;;;20.90;59.80;;;;;;4974327;28;20519;-86